Terminal Aerodrome Forecast
Issued by NWS Amarillo, TX

Home | Current Version | Previous Version | Text Only | Print | Product List | Glossary On
Versions: 1 2 3 4 5 6 7 8 9 10 11 12 13 14 15 16 17 18 19 20 21 22
000
FTUS44 KAMA 262300
TAFDHT
TAF
KDHT 262340Z 2700/2724 08013KT 6SM -SN OVC022
     FM270600 10010KT 4SM -SN OVC020
     FM271000 10012KT 1SM -SN OVC008
     FM271600 15015KT 3SM -SN OVC015=

USA.gov is the U.S. government's official web portal to all federal, state and local government web resources and services.